Time;durP1;ratioP1;P1;durP2;ratioP2;P2;SDS_P1;SDS_P2;PMS_P1;PMS_P2;Temp;Humidity;BMP_temperature;BMP_pressure;BME280_temperature;BME280_humidity;BME280_pressure;Samples;Min_cycle;Max_cycle;Signal;HPM_P1;HPM_P2
2023/05/31 00:01:43;;;;;;;1999.90;999.90;;;;;;;15.87;93.86;98072.75;5053505;28;20039;-75
2023/05/31 00:04:08;;;;;;;1999.90;999.90;;;;;;;15.81;93.67;98072.09;5053458;28;20032;-74
2023/05/31 00:06:35;;;;;;;1999.90;999.90;;;;;;;15.79;95.52;98068.84;5053400;28;20029;-75
2023/05/31 00:09:00;;;;;;;1999.90;999.90;;;;;;;15.72;95.31;98068.56;5053472;28;20151;-74
2023/05/31 00:11:26;;;;;;;1999.90;999.90;;;;;;;15.79;95.25;98073.53;5053026;28;20080;-75
2023/05/31 00:13:52;;;;;;;1999.90;999.90;;;;;;;15.63;97.31;98077.97;5053333;28;20428;-74
2023/05/31 00:16:17;;;;;;;1999.90;999.90;;;;;;;15.51;100.00;98071.13;5053326;28;20551;-74
2023/05/31 00:18:42;;;;;;;1999.90;999.90;;;;;;;15.53;100.00;98074.41;5053442;28;20063;-74
2023/05/31 00:21:08;;;;;;;1999.90;999.90;;;;;;;15.53;100.00;98073.59;5053229;28;20501;-74
2023/05/31 00:23:33;;;;;;;1999.90;999.90;;;;;;;15.48;100.00;98069.03;5053117;28;20449;-74
2023/05/31 00:25:58;;;;;;;1999.90;999.90;;;;;;;15.40;100.00;98063.50;5051766;28;20394;-74
2023/05/31 00:28:24;;;;;;;1999.90;999.90;;;;;;;15.19;100.00;98065.25;5052870;28;20746;-74
2023/05/31 00:30:49;;;;;;;1999.90;999.90;;;;;;;15.10;100.00;98072.72;5049854;28;20036;-74
2023/05/31 00:33:14;;;;;;;1999.90;999.90;;;;;;;14.97;100.00;98075.25;5032867;28;20470;-75
2023/05/31 00:35:40;;;;;;;1999.90;999.90;;;;;;;14.92;100.00;98061.63;5039388;28;20482;-75
2023/05/31 00:38:07;;;;;;;1999.90;999.90;;;;;;;15.03;100.00;98073.97;5035359;28;20485;-75
2023/05/31 00:40:33;;;;;;;1999.90;999.90;;;;;;;14.93;100.00;98067.97;5031540;28;20489;-75
2023/05/31 00:42:59;;;;;;;1999.90;999.90;;;;;;;14.93;100.00;98062.47;5032840;28;20116;-74
2023/05/31 00:45:24;;;;;;;1999.90;999.90;;;;;;;14.99;100.00;98067.50;5032836;28;20116;-74
2023/05/31 00:47:50;;;;;;;1999.90;999.90;;;;;;;14.96;100.00;98057.13;5032755;28;20030;-75
2023/05/31 00:50:15;;;;;;;1999.90;999.90;;;;;;;14.93;100.00;98052.25;5032803;28;20055;-75
2023/05/31 00:52:45;;;;;;;1999.90;999.90;;;;;;;14.98;100.00;98067.81;5031406;28;20033;-74
2023/05/31 00:55:11;;;;;;;1999.90;999.90;;;;;;;14.81;100.00;98076.03;5032501;28;20037;-75
2023/05/31 00:57:36;;;;;;;1999.90;999.90;;;;;;;14.75;100.00;98069.88;5032436;28;20026;-74
2023/05/31 01:00:04;;;;;;;1999.90;999.90;;;;;;;14.84;100.00;98076.22;5038621;28;20037;-75
2023/05/31 01:02:32;;;;;;;1999.90;999.90;;;;;;;14.68;100.00;98047.50;5052587;28;20427;-77
2023/05/31 01:04:58;;;;;;;1999.90;999.90;;;;;;;14.80;100.00;98063.38;5052199;28;20091;-75
2023/05/31 01:07:24;;;;;;;1999.90;999.90;;;;;;;14.78;100.00;98077.50;5052319;28;20449;-74
2023/05/31 01:09:50;;;;;;;1999.90;999.90;;;;;;;14.68;100.00;98072.28;5052105;28;20029;-75
2023/05/31 01:13:01;;;;;;;1999.90;999.90;;;;;;;14.69;100.00;98071.13;5052151;28;20033;-75
2023/05/31 01:15:32;;;;;;;1999.90;999.90;;;;;;;14.56;100.00;98074.81;5050765;28;20039;-75
2023/05/31 01:18:03;;;;;;;1999.90;999.90;;;;;;;14.48;100.00;98073.66;5052134;28;20385;-74
2023/05/31 01:20:34;;;;;;;1999.90;999.90;;;;;;;14.40;100.00;98070.88;5052158;28;20040;-75
2023/05/31 01:23:23;;;;;;;1999.90;999.90;;;;;;;14.59;100.00;98079.69;5051832;28;20024;-74
2023/05/31 01:26:07;;;;;;;1999.90;999.90;;;;;;;14.58;100.00;98075.31;5050635;28;20389;-75
2023/05/31 01:28:38;;;;;;;1999.90;999.90;;;;;;;14.45;100.00;98062.47;5051797;28;20489;-74
2023/05/31 01:31:08;;;;;;;1999.90;999.90;;;;;;;14.55;100.00;98067.69;5052474;28;20516;-75
2023/05/31 01:33:35;;;;;;;1999.90;999.90;;;;;;;14.50;100.00;98070.59;5051947;28;20500;-75
2023/05/31 01:36:03;;;;;;;1999.90;999.90;;;;;;;14.41;100.00;98083.47;5051701;28;20032;-75
2023/05/31 01:38:28;;;;;;;1999.90;999.90;;;;;;;14.28;100.00;98078.88;5051457;28;20104;-75
2023/05/31 01:40:56;;;;;;;1999.90;999.90;;;;;;;14.31;100.00;98084.56;5051307;28;20120;-74
2023/05/31 01:43:24;;;;;;;1999.90;999.90;;;;;;;14.23;100.00;98073.50;5051552;28;20059;-74
2023/05/31 01:45:51;;;;;;;1999.90;999.90;;;;;;;14.34;100.00;98072.94;5051570;28;20428;-73
2023/05/31 01:48:17;;;;;;;1999.90;999.90;;;;;;;14.23;100.00;98065.25;5050224;28;20060;-75
2023/05/31 01:50:44;;;;;;;1999.90;999.90;;;;;;;14.13;100.00;98071.81;5051448;28;20037;-74
2023/05/31 01:53:10;;;;;;;1999.90;999.90;;;;;;;14.06;100.00;98057.72;5051172;28;20025;-75
2023/05/31 01:55:35;;;;;;;1999.90;999.90;;;;;;;14.11;100.00;98078.78;5051153;28;20040;-74
2023/05/31 01:58:01;;;;;;;1999.90;999.90;;;;;;;14.13;100.00;98082.00;5051279;28;20065;-74
2023/05/31 02:00:27;;;;;;;1999.90;999.90;;;;;;;14.17;100.00;98089.34;5051690;28;20021;-74
2023/05/31 02:02:52;;;;;;;1999.90;999.90;;;;;;;14.02;100.00;98066.91;5051315;28;20023;-74
2023/05/31 02:05:18;;;;;;;1999.90;999.90;;;;;;;14.03;100.00;98094.13;5051277;28;20029;-74
2023/05/31 02:07:45;;;;;;;1999.90;999.90;;;;;;;14.14;100.00;98094.66;5051161;28;20458;-74
2023/05/31 02:10:11;;;;;;;1999.90;999.90;;;;;;;13.97;100.00;98089.06;5050837;28;20025;-76
2023/05/31 02:12:37;;;;;;;1999.90;999.90;;;;;;;13.80;100.00;98048.50;5051109;28;20504;-74
2023/05/31 02:15:03;;;;;;;1999.90;999.90;;;;;;;13.86;100.00;98072.00;5050893;28;20024;-74
2023/05/31 02:17:32;;;;;;;1999.90;999.90;;;;;;;13.91;100.00;98094.66;5049714;28;20025;-74
2023/05/31 02:19:58;;;;;;;1999.90;999.90;;;;;;;13.97;100.00;98078.84;5050756;28;20066;-74
2023/05/31 02:22:23;;;;;;;1999.90;999.90;;;;;;;13.86;100.00;98072.00;5050889;28;20115;-76
2023/05/31 02:24:49;;;;;;;1999.90;999.90;;;;;;;13.95;100.00;98076.41;5050795;28;20068;-76
2023/05/31 02:27:14;;;;;;;1999.90;999.90;;;;;;;14.03;100.00;98074.03;5049303;28;20078;-76
2023/05/31 02:29:40;;;;;;;1999.90;999.90;;;;;;;13.91;100.00;98063.59;5050802;28;20040;-74
2023/05/31 02:32:06;;;;;;;1999.90;999.90;;;;;;;13.85;100.00;98067.59;5051221;28;20029;-76
2023/05/31 02:34:31;;;;;;;1999.90;999.90;;;;;;;14.02;100.00;98094.41;5050628;28;20140;-76
2023/05/31 02:36:57;;;;;;;1999.90;999.90;;;;;;;13.80;100.00;98054.00;5050750;28;20021;-76
2023/05/31 02:39:24;;;;;;;1999.90;999.90;;;;;;;13.88;100.00;98073.28;5044923;28;20028;-75
2023/05/31 02:41:50;;;;;;;1999.90;999.90;;;;;;;13.88;100.00;98086.22;5040582;28;20030;-76
2023/05/31 02:44:15;;;;;;;1999.90;999.90;;;;;;;13.67;100.00;98077.69;5041301;28;20025;-75
2023/05/31 02:46:41;;;;;;;1999.90;999.90;;;;;;;13.73;100.00;98095.69;5050612;28;20096;-76
2023/05/31 02:49:06;;;;;;;1999.90;999.90;;;;;;;13.67;100.00;98074.94;5050379;28;20029;-74
2023/05/31 02:51:32;;;;;;;1999.90;999.90;;;;;;;13.71;100.00;98088.88;5049122;28;20060;-75
2023/05/31 02:53:58;;;;;;;1999.90;999.90;;;;;;;13.73;100.00;98092.94;5049184;28;20048;-76
2023/05/31 02:56:23;;;;;;;1999.90;999.90;;;;;;;13.63;100.00;98073.09;5050352;28;20061;-74
2023/05/31 02:58:48;;;;;;;1999.90;999.90;;;;;;;13.66;100.00;98092.53;5031158;28;20049;-74
2023/05/31 03:01:14;;;;;;;1999.90;999.90;;;;;;;13.72;100.00;98094.03;5030690;28;20040;-73
2023/05/31 03:03:40;;;;;;;1999.90;999.90;;;;;;;13.72;100.00;98088.53;5030422;28;20033;-75
2023/05/31 03:06:05;;;;;;;1999.90;999.90;;;;;;;13.79;100.00;98080.69;5031760;28;20022;-74
2023/05/31 03:08:31;;;;;;;1999.90;999.90;;;;;;;13.73;100.00;98084.69;5034174;28;20069;-74
2023/05/31 03:10:56;;;;;;;1999.90;999.90;;;;;;;13.79;100.00;98101.84;5034157;28;20040;-75
2023/05/31 03:13:22;;;;;;;1999.90;999.90;;;;;;;13.77;100.00;98098.63;5034236;28;20018;-75
2023/05/31 03:15:47;;;;;;;1999.90;999.90;;;;;;;13.71;100.00;98092.44;5034196;28;20087;-75
2023/05/31 03:18:13;;;;;;;1999.90;999.90;;;;;;;13.68;100.00;98101.31;5035238;28;20021;-72
2023/05/31 03:20:38;;;;;;;1999.90;999.90;;;;;;;13.69;100.00;98099.38;5037418;28;20033;-74
2023/05/31 03:23:03;;;;;;;1999.90;999.90;;;;;;;13.77;100.00;98106.88;5034078;28;20029;-74
2023/05/31 03:25:29;;;;;;;1999.90;999.90;;;;;;;13.70;100.00;98093.56;5034252;28;20460;-74
2023/05/31 03:27:54;;;;;;;1999.90;999.90;;;;;;;13.72;100.00;98105.03;5034204;28;20034;-74
2023/05/31 03:30:19;;;;;;;1999.90;999.90;;;;;;;13.74;100.00;98099.25;5034258;28;20029;-73
2023/05/31 03:32:45;;;;;;;1999.90;999.90;;;;;;;13.84;100.00;98108.06;5034163;28;20029;-74
2023/05/31 03:35:10;;;;;;;1999.90;999.90;;;;;;;13.85;100.00;98106.91;5050139;28;20033;-73
2023/05/31 03:37:35;;;;;;;1999.90;999.90;;;;;;;14.19;100.00;98111.03;5055179;28;20029;-80
2023/05/31 03:40:01;;;;;;;1999.90;999.90;;;;;;;14.22;100.00;98107.66;5054733;28;20013;-81
2023/05/31 03:42:26;;;;;;;1999.90;999.90;;;;;;;14.10;100.00;98112.91;5055799;28;20028;-79
2023/05/31 03:44:51;;;;;;;1999.90;999.90;;;;;;;14.10;100.00;98115.66;5054843;28;20036;-82
2023/05/31 03:47:17;;;;;;;1999.90;999.90;;;;;;;14.16;100.00;98114.44;5054161;28;20041;-76
2023/05/31 03:49:42;;;;;;;1999.90;999.90;;;;;;;14.10;100.00;98123.91;5052942;28;20085;-79
2023/05/31 03:52:12;;;;;;;1999.90;999.90;;;;;;;14.02;100.00;98120.00;5054101;28;20021;-81
2023/05/31 03:54:37;;;;;;;1999.90;999.90;;;;;;;13.98;100.00;98124.47;5053822;28;20389;-80
2023/05/31 03:57:03;;;;;;;1999.90;999.90;;;;;;;13.92;100.00;98125.72;5053705;28;20021;-77
2023/05/31 03:59:28;;;;;;;1999.90;999.90;;;;;;;13.87;100.00;98129.44;5053458;28;20374;-76
2023/05/31 04:01:54;;;;;;;1999.90;999.90;;;;;;;13.88;100.00;98125.53;5053889;28;20017;-78
2023/05/31 04:04:19;;;;;;;1999.90;999.90;;;;;;;13.93;100.00;98122.69;5054501;28;20067;-76
2023/05/31 04:06:45;;;;;;;1999.90;999.90;;;;;;;14.07;100.00;98127.28;5053500;28;20539;-75
2023/05/31 04:09:10;;;;;;;1999.90;999.90;;;;;;;14.18;100.00;98132.22;5053190;28;20033;-74
2023/05/31 04:11:35;;;;;;;1999.90;999.90;;;;;;;14.36;100.00;98130.41;5052576;28;20559;-76
2023/05/31 04:14:00;;;;;;;1999.90;999.90;;;;;;;14.75;100.00;98116.69;5052353;28;20021;-76
2023/05/31 04:16:26;;;;;;;1999.90;999.90;;;;;;;15.23;100.00;98126.84;5051256;28;20025;-75
2023/05/31 04:18:51;;;;;;;1999.90;999.90;;;;;;;16.00;98.96;98132.47;5052562;28;20122;-77
2023/05/31 04:21:17;;;;;;;1999.90;999.90;;;;;;;16.72;88.59;98132.47;5052478;28;20024;-76
2023/05/31 04:23:43;;;;;;;1999.90;999.90;;;;;;;16.85;85.69;98131.44;5052855;28;20024;-75
2023/05/31 04:26:08;;;;;;;1999.90;999.90;;;;;;;16.78;84.71;98144.16;5050898;28;20040;-75
2023/05/31 04:28:34;;;;;;;1999.90;999.90;;;;;;;16.42;86.19;98139.03;5052298;28;20017;-74
2023/05/31 04:31:00;;;;;;;1999.90;999.90;;;;;;;16.46;86.86;98145.53;5052577;28;20033;-75
2023/05/31 04:33:29;;;;;;;1999.90;999.90;;;;;;;16.91;83.76;98138.44;5052653;28;20024;-75
2023/05/31 04:35:56;;;;;;;1999.90;999.90;;;;;;;17.19;81.38;98149.00;5050764;28;20031;-74
2023/05/31 04:38:23;;;;;;;1999.90;999.90;;;;;;;16.79;83.85;98148.56;5048466;28;20072;-75
2023/05/31 04:40:50;;;;;;;1999.90;999.90;;;;;;;16.49;86.46;98147.63;5050136;28;20021;-74
2023/05/31 04:43:15;;;;;;;1999.90;999.90;;;;;;;16.20;88.68;98150.28;5051409;28;20066;-76
2023/05/31 04:45:41;;;;;;;1999.90;999.90;;;;;;;15.95;90.79;98141.69;5052286;28;20111;-75
2023/05/31 04:48:06;;;;;;;1999.90;999.90;;;;;;;15.94;91.24;98148.34;5051373;28;20033;-75
2023/05/31 04:50:31;;;;;;;1999.90;999.90;;;;;;;15.79;91.61;98146.09;5055132;28;20031;-74
2023/05/31 04:52:57;;;;;;;1999.90;999.90;;;;;;;15.84;91.96;98158.91;5053675;28;20782;-75
2023/05/31 04:55:22;;;;;;;1999.90;999.90;;;;;;;15.82;92.58;98158.44;5052630;28;20112;-74
2023/05/31 04:57:47;;;;;;;1999.90;999.90;;;;;;;15.86;91.32;98154.69;5052101;28;20389;-74
2023/05/31 05:00:16;;;;;;;1999.90;999.90;;;;;;;15.88;91.53;98155.16;5052575;28;20021;-75
2023/05/31 05:02:42;;;;;;;1999.90;999.90;;;;;;;15.87;92.59;98156.31;5052898;28;20029;-75
2023/05/31 05:05:08;;;;;;;1999.90;999.90;;;;;;;15.96;92.08;98165.41;5052436;28;20061;-75
2023/05/31 05:07:33;;;;;;;1999.90;999.90;;;;;;;16.01;91.46;98156.94;5052533;28;20059;-75
2023/05/31 05:09:58;;;;;;;1999.90;999.90;;;;;;;16.01;90.64;98159.72;5052263;28;20033;-75
2023/05/31 05:12:24;;;;;;;1999.90;999.90;;;;;;;15.96;89.93;98167.34;5052142;28;20029;-76
2023/05/31 05:14:49;;;;;;;1999.90;999.90;;;;;;;16.05;89.45;98160.69;5052126;28;20021;-75
2023/05/31 05:17:14;;;;;;;1999.90;999.90;;;;;;;16.01;89.66;98165.22;5052176;28;20033;-75
2023/05/31 05:19:40;;;;;;;1999.90;999.90;;;;;;;16.08;89.95;98168.31;5052080;28;20021;-75
2023/05/31 05:22:05;;;;;;;1999.90;999.90;;;;;;;16.21;89.05;98171.22;5052149;28;20462;-76
2023/05/31 05:24:30;;;;;;;1999.90;999.90;;;;;;;16.24;90.44;98168.63;5052410;28;20044;-75
2023/05/31 05:26:56;;;;;;;1999.90;999.90;;;;;;;16.39;89.55;98164.53;5052120;28;20021;-75
2023/05/31 05:29:21;;;;;;;1999.90;999.90;;;;;;;16.70;87.34;98173.41;5051379;28;20028;-76
2023/05/31 05:31:48;;;;;;;1999.90;999.90;;;;;;;17.07;83.75;98172.63;5052311;28;20052;-75
2023/05/31 05:34:14;;;;;;;1999.90;999.90;;;;;;;17.25;82.04;98165.06;5052187;28;20043;-75
2023/05/31 05:36:39;;;;;;;1999.90;999.90;;;;;;;17.51;80.96;98173.22;5051923;28;20111;-75
2023/05/31 05:39:06;;;;;;;1999.90;999.90;;;;;;;17.84;76.97;98188.00;5051838;28;20036;-75
2023/05/31 05:41:31;;;;;;;1999.90;999.90;;;;;;;17.97;74.81;98192.47;5054500;28;20124;-74
2023/05/31 05:43:57;;;;;;;1999.90;999.90;;;;;;;18.03;74.79;98196.66;5051717;28;20458;-76
2023/05/31 05:46:22;;;;;;;1999.90;999.90;;;;;;;18.13;72.78;98185.16;5051641;28;20541;-75
2023/05/31 05:48:48;;;;;;;1999.90;999.90;;;;;;;18.49;69.74;98183.69;5051724;28;20040;-77
2023/05/31 05:51:13;;;;;;;1999.90;999.90;;;;;;;18.67;68.26;98193.47;5051232;28;20021;-76
2023/05/31 05:53:39;;;;;;;1999.90;999.90;;;;;;;18.77;67.96;98195.78;5051249;28;20104;-78
2023/05/31 05:56:04;;;;;;;1999.90;999.90;;;;;;;18.81;67.87;98199.50;5051268;28;20064;-77
2023/05/31 05:58:30;;;;;;;1999.90;999.90;;;;;;;19.00;65.88;98197.00;5051476;28;20039;-76
2023/05/31 06:00:55;;;;;;;1999.90;999.90;;;;;;;19.31;64.83;98193.69;5051598;28;20477;-76
2023/05/31 06:03:23;;;;;;;1999.90;999.90;;;;;;;19.33;65.45;98187.81;5051063;28;20033;-77
2023/05/31 06:05:48;;;;;;;1999.90;999.90;;;;;;;19.25;64.20;98193.09;5048534;28;20025;-76
2023/05/31 06:08:14;;;;;;;1999.90;999.90;;;;;;;18.99;65.49;98203.69;5049854;28;20032;-77
2023/05/31 06:10:40;;;;;;;1999.90;999.90;;;;;;;19.16;65.42;98184.09;5051003;28;20077;-76
2023/05/31 06:13:06;;;;;;;1999.90;999.90;;;;;;;19.40;64.02;98182.50;5049518;28;20479;-77
2023/05/31 06:15:32;;;;;;;1999.90;999.90;;;;;;;19.65;62.61;98192.41;5050934;28;20089;-76
2023/05/31 06:17:58;;;;;;;1999.90;999.90;;;;;;;19.62;63.12;98201.44;5050836;28;20076;-77
2023/05/31 06:20:25;;;;;;;1999.90;999.90;;;;;;;19.97;61.13;98205.34;5049496;28;20535;-76
2023/05/31 06:22:51;;;;;;;1999.90;999.90;;;;;;;19.89;61.55;98205.47;5051069;28;20505;-77
2023/05/31 06:25:17;;;;;;;1999.90;999.90;;;;;;;20.14;60.15;98207.81;5049654;28;20083;-77
2023/05/31 06:27:45;;;;;;;1999.90;999.90;;;;;;;20.47;58.75;98209.59;5050816;28;20029;-77
2023/05/31 06:30:11;;;;;;;1999.90;999.90;;;;;;;20.62;57.99;98214.41;5051006;28;20112;-76
2023/05/31 06:32:37;;;;;;;1999.90;999.90;;;;;;;20.57;57.10;98207.13;5050014;28;20394;-76
2023/05/31 06:35:02;;;;;;;1999.90;999.90;;;;;;;19.96;59.29;98206.47;5050455;28;20035;-76
2023/05/31 06:37:27;;;;;;;1999.90;999.90;;;;;;;19.96;59.56;98211.22;5050675;28;20032;-75
2023/05/31 06:39:54;;;;;;;1999.90;999.90;;;;;;;20.35;58.58;98201.31;5050540;28;20091;-76
2023/05/31 06:42:21;;;;;;;1999.90;999.90;;;;;;;20.86;57.19;98211.50;5049487;28;20021;-76
2023/05/31 06:44:46;;;;;;;1999.90;999.90;;;;;;;20.56;56.38;98213.03;5050718;28;20037;-76
2023/05/31 06:47:11;;;;;;;1999.90;999.90;;;;;;;19.91;58.00;98200.38;5050401;28;20025;-76
2023/05/31 06:49:37;;;;;;;1999.90;999.90;;;;;;;20.33;58.02;98212.78;5050496;28;20029;-76
2023/05/31 06:52:02;;;;;;;1999.90;999.90;;;;;;;20.69;56.44;98212.63;5050622;28;20124;-76
2023/05/31 06:54:28;;;;;;;1999.90;999.90;;;;;;;20.66;56.99;98212.53;5052254;28;20025;-78
2023/05/31 06:56:54;;;;;;;1999.90;999.90;;;;;;;21.04;56.09;98211.97;5052697;28;20033;-77
2023/05/31 06:59:20;;;;;;;1999.90;999.90;;;;;;;21.01;55.43;98207.13;5050540;28;20017;-78
2023/05/31 07:01:45;;;;;;;1999.90;999.90;;;;;;;21.23;54.15;98212.09;5050664;28;20029;-76
2023/05/31 07:04:11;;;;;;;1999.90;999.90;;;;;;;21.23;53.60;98218.50;5050208;28;20037;-76
2023/05/31 07:06:37;;;;;;;1999.90;999.90;;;;;;;21.06;53.92;98221.56;5050399;28;20074;-77
2023/05/31 07:09:04;;;;;;;1999.90;999.90;;;;;;;21.02;53.88;98206.75;5050502;28;20102;-75
2023/05/31 07:11:29;;;;;;;1999.90;999.90;;;;;;;20.98;54.21;98213.41;5050168;28;20041;-76
2023/05/31 07:13:59;;;;;;;1999.90;999.90;;;;;;;20.79;55.17;98214.09;5050101;28;20072;-76
2023/05/31 07:16:25;;;;;;;1999.90;999.90;;;;;;;20.64;55.15;98200.97;5049963;28;20021;-75
2023/05/31 07:18:50;;;;;;;1999.90;999.90;;;;;;;20.83;53.69;98201.88;5050128;28;20086;-77
2023/05/31 07:21:15;;;;;;;1999.90;999.90;;;;;;;20.52;55.48;98217.69;5050233;28;20470;-77
2023/05/31 07:23:42;;;;;;;1999.90;999.90;;;;;;;20.57;55.71;98204.34;5050777;28;20374;-76
2023/05/31 07:26:07;;;;;;;1999.90;999.90;;;;;;;20.44;54.74;98215.88;5050050;28;20029;-76
2023/05/31 07:28:33;;;;;;;1999.90;999.90;;;;;;;19.88;56.86;98210.22;5050061;28;20074;-81
2023/05/31 07:30:58;;;;;;;1999.90;999.90;;;;;;;19.81;57.87;98206.41;5049175;28;20056;-76
2023/05/31 07:33:23;;;;;;;1999.90;999.90;;;;;;;19.85;57.25;98210.09;5050228;28;20029;-77
2023/05/31 07:35:49;;;;;;;1999.90;999.90;;;;;;;20.48;55.92;98222.34;5049968;28;20110;-79
2023/05/31 07:38:14;;;;;;;1999.90;999.90;;;;;;;20.10;55.91;98215.25;5049544;28;20394;-78
2023/05/31 07:40:40;;;;;;;1999.90;999.90;;;;;;;20.25;56.49;98225.63;5050018;28;20036;-78
2023/05/31 07:43:05;;;;;;;1999.90;999.90;;;;;;;20.08;57.03;98219.56;5049851;28;20021;-75
2023/05/31 07:45:30;;;;;;;1999.90;999.90;;;;;;;20.12;57.33;98226.81;5049835;28;20048;-75
2023/05/31 07:47:56;;;;;;;1999.90;999.90;;;;;;;19.65;59.11;98222.94;5049712;28;20029;-76
2023/05/31 07:50:22;;;;;;;1999.90;999.90;;;;;;;19.86;59.72;98217.28;5049872;28;20036;-76
2023/05/31 07:52:49;;;;;;;1999.90;999.90;;;;;;;19.93;59.52;98221.06;5034264;28;20033;-77
2023/05/31 07:55:16;;;;;;;1999.90;999.90;;;;;;;19.64;60.20;98224.13;5053349;28;20025;-76
2023/05/31 07:57:41;;;;;;;1999.90;999.90;;;;;;;19.41;58.44;98223.78;5053579;28;20037;-76
2023/05/31 08:00:08;;;;;;;1999.90;999.90;;;;;;;19.36;59.21;98237.84;5053487;28;20108;-77
2023/05/31 08:02:33;;;;;;;1999.90;999.90;;;;;;;18.60;62.27;98224.53;5053896;28;20017;-78
2023/05/31 08:05:01;;;;;;;1999.90;999.90;;;;;;;18.87;62.47;98234.19;5053551;28;20385;-78
2023/05/31 08:07:27;;;;;;;1999.90;999.90;;;;;;;18.89;62.61;98222.75;5053530;28;20036;-77
2023/05/31 08:09:52;;;;;;;1999.90;999.90;;;;;;;18.75;63.45;98228.59;5053302;28;20029;-77
2023/05/31 08:12:18;;;;;;;1999.90;999.90;;;;;;;18.61;64.37;98226.13;5053243;28;20501;-77
2023/05/31 08:14:43;;;;;;;1999.90;999.90;;;;;;;18.95;63.57;98222.16;5053203;28;20119;-78
2023/05/31 08:17:09;;;;;;;1999.90;999.90;;;;;;;18.99;63.31;98223.13;5053039;28;20029;-76
2023/05/31 08:19:34;;;;;;;1999.90;999.90;;;;;;;18.72;62.71;98232.06;5051887;28;20025;-78
2023/05/31 08:22:00;;;;;;;1999.90;999.90;;;;;;;19.01;61.96;98220.81;5053044;28;20481;-76
2023/05/31 08:24:26;;;;;;;1999.90;999.90;;;;;;;18.99;61.86;98225.88;5053170;28;20021;-77
2023/05/31 08:26:51;;;;;;;1999.90;999.90;;;;;;;19.22;62.47;98231.81;5053212;28;20507;-76
2023/05/31 08:29:16;;;;;;;1999.90;999.90;;;;;;;19.31;61.80;98228.94;5053028;28;20032;-76
2023/05/31 08:31:42;;;;;;;1999.90;999.90;;;;;;;19.91;59.44;98220.63;5053204;28;20133;-76
2023/05/31 08:34:07;;;;;;;1999.90;999.90;;;;;;;20.29;57.98;98236.88;5052987;28;20025;-78
2023/05/31 08:36:34;;;;;;;1999.90;999.90;;;;;;;19.52;59.12;98232.44;5052904;28;20450;-76
2023/05/31 08:38:59;;;;;;;1999.90;999.90;;;;;;;19.59;58.03;98238.22;5051538;28;20039;-75
2023/05/31 08:41:29;;;;;;;1999.90;999.90;;;;;;;19.22;59.37;98246.50;5053109;28;20473;-75
2023/05/31 08:43:55;;;;;;;1999.90;999.90;;;;;;;19.64;57.99;98249.13;5053342;28;20393;-78
2023/05/31 08:46:20;;;;;;;1999.90;999.90;;;;;;;19.55;58.57;98260.31;5051307;28;20025;-75
2023/05/31 08:49:15;;;;;;;1999.90;999.90;;;;;;;19.37;58.78;98250.56;5052674;28;20029;-75
2023/05/31 08:51:43;;;;;;;1999.90;999.90;;;;;;;19.38;59.59;98259.69;5052697;28;20112;-76
2023/05/31 08:54:10;;;;;;;1999.90;999.90;;;;;;;18.97;59.79;98255.94;5052728;28;20029;-76
2023/05/31 08:56:38;;;;;;;1999.90;999.90;;;;;;;19.01;60.83;98265.19;5050972;28;20037;-76
2023/05/31 08:59:04;;;;;;;1999.90;999.90;;;;;;;19.04;60.79;98266.47;5052586;28;20043;-76
2023/05/31 09:01:30;;;;;;;1999.90;999.90;;;;;;;18.85;61.85;98269.75;5069056;28;20051;-79
2023/05/31 09:03:56;;;;;;;1999.90;999.90;;;;;;;18.96;61.64;98262.63;5059190;28;20029;-76
2023/05/31 09:06:21;;;;;;;1999.90;999.90;;;;;;;19.12;61.35;98271.91;5052646;28;20059;-77
2023/05/31 09:08:47;;;;;;;1999.90;999.90;;;;;;;18.96;60.27;98283.97;5052106;28;20057;-76
2023/05/31 09:11:13;;;;;;;1999.90;999.90;;;;;;;18.87;61.42;98264.69;5051990;28;20041;-76
2023/05/31 09:13:38;;;;;;;1999.90;999.90;;;;;;;19.00;61.18;98279.38;5052097;28;20025;-78
2023/05/31 09:16:04;;;;;;;1999.90;999.90;;;;;;;19.15;59.94;98265.69;5051910;28;20032;-75
2023/05/31 09:18:39;;;;;;;1999.90;999.90;;;;;;;18.94;60.53;98276.03;5052042;28;20029;-75
2023/05/31 09:21:10;;;;;;;1999.90;999.90;;;;;;;18.91;61.01;98276.72;5052045;28;20036;-77
2023/05/31 09:23:35;;;;;;;1999.90;999.90;;;;;;;18.93;62.02;98274.41;5051693;28;20128;-76
2023/05/31 09:26:05;;;;;;;1999.90;999.90;;;;;;;19.04;62.48;98275.59;5052026;28;20048;-75
2023/05/31 09:28:30;;;;;;;1999.90;999.90;;;;;;;19.08;62.65;98282.06;5051986;28;20088;-77
2023/05/31 09:31:03;;;;;;;1999.90;999.90;;;;;;;18.69;64.77;98277.91;5051858;28;20036;-77
2023/05/31 09:33:43;;;;;;;1999.90;999.90;;;;;;;18.31;66.66;98284.72;5052050;28;20040;-76
2023/05/31 09:36:10;;;;;;;1999.90;999.90;;;;;;;18.47;65.91;98271.88;5051492;28;20128;-78
2023/05/31 09:38:36;;;;;;;1999.90;999.90;;;;;;;18.43;66.88;98270.91;5051661;28;20040;-75
2023/05/31 09:41:20;;;;;;;1999.90;999.90;;;;;;;18.72;66.47;98284.72;5051877;28;20579;-75
2023/05/31 09:43:50;;;;;;;1999.90;999.90;;;;;;;19.25;64.63;98286.63;5050860;28;20028;-75
2023/05/31 09:46:16;;;;;;;1999.90;999.90;;;;;;;19.11;63.29;98286.91;5051662;28;20033;-77
2023/05/31 09:48:42;;;;;;;1999.90;999.90;;;;;;;18.77;65.48;98290.03;5051430;28;20029;-76
2023/05/31 09:51:08;;;;;;;1999.90;999.90;;;;;;;18.31;68.26;98279.16;5051550;28;20064;-78
2023/05/31 09:53:44;;;;;;;1999.90;999.90;;;;;;;18.22;68.84;98286.72;5051484;28;20029;-81
2023/05/31 09:56:23;;;;;;;1999.90;999.90;;;;;;;18.34;70.10;98279.31;5051347;28;20116;-78
2023/05/31 09:58:50;;;;;;;1999.90;999.90;;;;;;;18.26;70.33;98282.97;5051173;28;20049;-77
2023/05/31 10:01:16;;;;;;;1999.90;999.90;;;;;;;18.17;72.21;98280.25;5051197;28;20036;-76
2023/05/31 10:03:43;;;;;;;1999.90;999.90;;;;;;;18.39;70.61;98292.13;5051416;28;20112;-79
2023/05/31 10:06:09;;;;;;;1999.90;999.90;;;;;;;18.33;71.07;98287.94;5051169;28;20061;-77
2023/05/31 10:08:36;;;;;;;1999.90;999.90;;;;;;;18.27;71.78;98289.28;5051199;28;20438;-76
2023/05/31 10:11:02;;;;;;;1999.90;999.90;;;;;;;18.02;74.37;98294.69;5049896;28;20387;-81
2023/05/31 10:13:28;;;;;;;1999.90;999.90;;;;;;;18.07;76.08;98290.91;5049661;28;20051;-78
2023/05/31 10:15:56;;;;;;;1999.90;999.90;;;;;;;18.09;75.56;98297.75;5050539;28;20040;-77
2023/05/31 10:18:27;;;;;;;1999.90;999.90;;;;;;;18.14;77.54;98297.53;5050776;28;20043;-75
2023/05/31 10:20:55;;;;;;;1999.90;999.90;;;;;;;18.02;80.61;98288.31;5051147;28;20017;-76
2023/05/31 10:23:23;;;;;;;1999.90;999.90;;;;;;;18.00;81.01;98291.44;5049602;28;20083;-78
2023/05/31 10:26:13;;;;;;;1999.90;999.90;;;;;;;17.67;83.19;98282.19;5049745;28;20374;-77
2023/05/31 10:28:54;;;;;;;1999.90;999.90;;;;;;;17.80;81.56;98288.63;5050652;28;20036;-77
2023/05/31 10:31:22;;;;;;;1999.90;999.90;;;;;;;17.72;85.63;98287.53;5050804;28;20059;-76
2023/05/31 10:33:54;;;;;;;1999.90;999.90;;;;;;;17.56;89.15;98292.00;5051216;28;20025;-75
2023/05/31 10:36:19;;;;;;;1999.90;999.90;;;;;;;17.43;92.96;98290.25;5050492;28;20025;-76
2023/05/31 10:38:58;;;;;;;1999.90;999.90;;;;;;;17.29;95.04;98289.66;5050566;28;20025;-76
2023/05/31 10:41:31;;;;;;;1999.90;999.90;;;;;;;16.91;96.62;98287.66;5051015;28;20025;-75
2023/05/31 10:44:06;;;;;;;1999.90;999.90;;;;;;;16.95;99.96;98282.25;5051143;28;20095;-79
2023/05/31 10:46:32;;;;;;;;;;;;;;;16.89;100.00;98298.19;5051005;28;20021;-76
2023/05/31 10:48:59;;;;;;;1999.90;999.90;;;;;;;16.88;100.00;98293.03;5050607;28;19923;-79
2023/05/31 10:51:41;;;;;;;1999.90;999.90;;;;;;;16.94;100.00;98292.53;5050471;28;20025;-76